createdAt,value
2023-02-11T00:00:20.096Z,1040.4
2023-02-11T00:05:20.105Z,1040.4
2023-02-11T00:10:20.096Z,1040.5
2023-02-11T00:15:20.100Z,1040.5
2023-02-11T00:20:20.116Z,1040.5
2023-02-11T00:25:20.100Z,1040.5
2023-02-11T00:30:20.100Z,1040.4
2023-02-11T00:35:20.113Z,1040.4
2023-02-11T00:40:20.102Z,1040.4
2023-02-11T00:45:20.102Z,1040.3
2023-02-11T00:50:20.112Z,1040.4
2023-02-11T00:55:20.104Z,1040.4
2023-02-11T01:00:20.104Z,1040.3
2023-02-11T01:05:20.202Z,1040.5
2023-02-11T01:10:20.109Z,1040.5
2023-02-11T01:15:20.107Z,1040.3
2023-02-11T01:20:20.110Z,1040.1
2023-02-11T01:25:20.113Z,1040.2
2023-02-11T01:30:20.099Z,1040
2023-02-11T01:35:20.105Z,1040
2023-02-11T01:40:20.115Z,1039.8
2023-02-11T01:45:20.110Z,1039.7
2023-02-11T01:50:20.112Z,1039.7
2023-02-11T01:55:20.104Z,1039.6
2023-02-11T02:00:20.108Z,1039.5
2023-02-11T02:05:20.108Z,1039.5
2023-02-11T02:10:20.105Z,1039.5
2023-02-11T02:15:20.112Z,1039.5
2023-02-11T02:20:20.094Z,1039.5
2023-02-11T02:25:20.107Z,1039.4
2023-02-11T02:30:20.095Z,1039.3
2023-02-11T02:35:20.097Z,1039.3
2023-02-11T02:40:20.103Z,1039.3
2023-02-11T02:45:20.099Z,1039.2
2023-02-11T02:50:20.104Z,1039.2
2023-02-11T02:55:20.107Z,1039.3
2023-02-11T03:00:20.093Z,1039.2
2023-02-11T03:05:20.129Z,1039.3
2023-02-11T03:10:20.108Z,1039.2
2023-02-11T03:15:20.098Z,1039.3
2023-02-11T03:20:20.107Z,1039.3
2023-02-11T03:25:20.119Z,1039.2
2023-02-11T03:30:20.100Z,1039
2023-02-11T03:35:20.132Z,1039
2023-02-11T03:40:20.102Z,1039
2023-02-11T03:45:20.110Z,1039.2
2023-02-11T03:50:20.131Z,1039.1
2023-02-11T03:55:20.107Z,1039
2023-02-11T04:00:20.114Z,1038.8
2023-02-11T04:05:20.145Z,1038.6
2023-02-11T04:10:20.104Z,1038.8
2023-02-11T04:15:20.098Z,1038.7
2023-02-11T04:20:20.101Z,1038.5
2023-02-11T04:25:20.102Z,1038.6
2023-02-11T04:30:20.108Z,1038.5
2023-02-11T04:35:20.111Z,1038.4
2023-02-11T04:40:20.113Z,1038.2
2023-02-11T04:45:20.115Z,1038.2
2023-02-11T04:50:20.130Z,1038.5
2023-02-11T04:55:20.124Z,1038.6
2023-02-11T05:00:20.121Z,1038.4
2023-02-11T05:05:20.139Z,1038.3
2023-02-11T05:10:20.126Z,1038.2
2023-02-11T05:15:20.116Z,1038.5
2023-02-11T05:20:20.120Z,1038.3
2023-02-11T05:25:20.101Z,1038.2
2023-02-11T05:30:20.132Z,1038.2
2023-02-11T05:35:20.117Z,1038.2
2023-02-11T05:40:20.125Z,1038.3
2023-02-11T05:45:20.112Z,1038.3
2023-02-11T05:50:20.113Z,1038.1
2023-02-11T05:55:20.144Z,1038.1
2023-02-11T06:00:20.117Z,1038.1
2023-02-11T06:05:20.106Z,1038.2
2023-02-11T06:10:20.109Z,1038.2
2023-02-11T06:15:20.117Z,1038.3
2023-02-11T06:20:20.105Z,1038.2
2023-02-11T06:25:20.110Z,1038.1
2023-02-11T06:30:20.116Z,1037.8
2023-02-11T06:35:20.118Z,1038.1
2023-02-11T06:40:20.109Z,1038.4
2023-02-11T06:45:20.115Z,1038.4
2023-02-11T06:50:20.106Z,1038.2
2023-02-11T06:55:20.119Z,1038.2
2023-02-11T07:00:20.096Z,1038.1
2023-02-11T07:05:20.114Z,1038.2
2023-02-11T07:10:20.110Z,1038.2
2023-02-11T07:15:20.200Z,1038.2
2023-02-11T07:20:20.112Z,1038.2
2023-02-11T07:25:20.112Z,1038.2
2023-02-11T07:30:20.095Z,1038.2
2023-02-11T07:35:20.118Z,1038.2
2023-02-11T07:40:20.121Z,1038.3
2023-02-11T07:45:20.114Z,1038.3
2023-02-11T07:50:20.110Z,1038.2
2023-02-11T07:55:20.102Z,1038.4
2023-02-11T08:00:21.232Z,1038.4
2023-02-11T08:05:20.123Z,1038.7
2023-02-11T08:10:20.098Z,1038.6
2023-02-11T08:15:20.106Z,1038.8
2023-02-11T08:20:20.129Z,1038.9
2023-02-11T08:25:20.101Z,1039
2023-02-11T08:30:20.104Z,1038.9
2023-02-11T08:35:20.110Z,1038.7
2023-02-11T08:40:20.091Z,1038.9
2023-02-11T08:45:20.106Z,1038.7
2023-02-11T08:55:20.109Z,1038.9
2023-02-11T09:00:20.111Z,1039.1
2023-02-11T09:05:20.102Z,1039.1
2023-02-11T09:10:20.108Z,1039
2023-02-11T09:15:20.117Z,1039.1
2023-02-11T09:20:20.105Z,1038.9
2023-02-11T09:25:20.113Z,1038.9
2023-02-11T09:30:20.119Z,1038.8
2023-02-11T09:35:20.108Z,1038.7
2023-02-11T09:40:20.116Z,1038.7
2023-02-11T09:45:20.131Z,1038.7
2023-02-11T09:50:20.125Z,1038.7
2023-02-11T09:55:20.127Z,1038.6
2023-02-11T10:00:20.129Z,1038.7
2023-02-11T10:05:20.137Z,1038.7
2023-02-11T10:10:20.230Z,1038.7
2023-02-11T10:15:20.129Z,1038.8
2023-02-11T10:20:20.114Z,1038.8
2023-02-11T10:25:20.128Z,1038.9
2023-02-11T10:30:20.157Z,1039
2023-02-11T10:35:20.116Z,1039.1
2023-02-11T10:40:20.113Z,1039.1
2023-02-11T10:45:20.122Z,1039.1
2023-02-11T10:50:20.118Z,1039.1
2023-02-11T10:55:20.121Z,1039.1
2023-02-11T11:00:20.109Z,1039.1
2023-02-11T11:05:20.117Z,1039.1
2023-02-11T11:10:20.115Z,1039
2023-02-11T11:15:20.109Z,1039
2023-02-11T11:20:20.121Z,1039
2023-02-11T11:25:20.103Z,1039.1
2023-02-11T11:30:20.112Z,1038.9
2023-02-11T11:35:20.112Z,1038.9
2023-02-11T11:40:20.113Z,1038.8
2023-02-11T11:45:20.109Z,1038.9
2023-02-11T11:50:21.147Z,1038.8
2023-02-11T11:55:20.106Z,1038.8
2023-02-11T12:00:20.117Z,1038.8
2023-02-11T12:05:20.100Z,1038.9
2023-02-11T12:10:20.107Z,1038.8
2023-02-11T12:15:20.097Z,1038.7
2023-02-11T12:20:20.103Z,1038.7
2023-02-11T12:25:20.108Z,1038.7
2023-02-11T12:30:20.108Z,1038.6
2023-02-11T12:35:20.121Z,1038.5
2023-02-11T12:40:20.104Z,1038.4
2023-02-11T12:45:20.108Z,1038.4
2023-02-11T12:50:20.106Z,1038.5
2023-02-11T12:55:20.107Z,1038.5
2023-02-11T13:00:20.116Z,1038.4
2023-02-11T13:05:20.092Z,1038.2
2023-02-11T13:10:20.108Z,1038.1
2023-02-11T13:15:20.107Z,1038
2023-02-11T13:20:20.116Z,1038
2023-02-11T13:25:20.113Z,1038.1
2023-02-11T13:30:20.105Z,1038.1
2023-02-11T13:35:20.108Z,1037.9
2023-02-11T13:40:20.121Z,1038
2023-02-11T13:45:20.117Z,1037.9
2023-02-11T13:50:20.106Z,1038.1
2023-02-11T13:55:20.112Z,1038
2023-02-11T14:00:20.105Z,1038
2023-02-11T14:05:20.105Z,1038.1
2023-02-11T14:10:20.090Z,1038
2023-02-11T14:15:20.124Z,1038.1
2023-02-11T14:20:20.105Z,1038.2
2023-02-11T14:25:20.120Z,1038.1
2023-02-11T14:30:20.099Z,1038.2
2023-02-11T14:35:20.122Z,1038.2
2023-02-11T14:40:20.104Z,1038.1
2023-02-11T14:45:20.133Z,1038.2
2023-02-11T14:50:20.103Z,1038.3
2023-02-11T14:55:20.109Z,1038.5
2023-02-11T15:00:20.171Z,1038.5
2023-02-11T15:05:20.110Z,1038.6
2023-02-11T15:10:20.107Z,1038.6
2023-02-11T15:15:20.109Z,1038.5
2023-02-11T15:20:20.104Z,1038.6
2023-02-11T15:25:20.109Z,1038.5
2023-02-11T15:30:20.110Z,1038.6
2023-02-11T15:35:20.097Z,1038.6
2023-02-11T15:40:20.106Z,1038.7
2023-02-11T15:45:20.101Z,1038.6
2023-02-11T15:50:20.100Z,1038.5
2023-02-11T15:55:20.130Z,1038.5
2023-02-11T16:00:20.115Z,1038.4
2023-02-11T16:05:20.107Z,1038.5
2023-02-11T16:10:20.107Z,1038.6
2023-02-11T16:15:20.111Z,1038.6
2023-02-11T16:20:20.103Z,1038.7
2023-02-11T16:25:20.119Z,1038.7
2023-02-11T16:30:20.103Z,1038.6
2023-02-11T16:35:20.116Z,1038.8
2023-02-11T16:40:20.102Z,1038.7
2023-02-11T16:45:20.119Z,1038.9
2023-02-11T16:50:20.113Z,1038.8
2023-02-11T16:55:21.884Z,1038.9
2023-02-11T17:00:20.109Z,1038.9
2023-02-11T17:05:20.109Z,1038.9
2023-02-11T17:10:20.097Z,1039
2023-02-11T17:15:20.108Z,1039
2023-02-11T17:20:20.094Z,1039.1
2023-02-11T17:25:20.104Z,1039.1
2023-02-11T17:30:20.106Z,1039.1
2023-02-11T17:35:20.090Z,1039.2
2023-02-11T17:40:20.093Z,1039.3
2023-02-11T17:45:22.235Z,1039.3
2023-02-11T17:50:20.110Z,1039.3
2023-02-11T17:55:20.114Z,1039.4
2023-02-11T18:00:20.105Z,1039.4
2023-02-11T18:05:20.107Z,1039.3
2023-02-11T18:10:20.110Z,1039.4
2023-02-11T18:15:20.112Z,1039.4
2023-02-11T18:20:20.097Z,1039.4
2023-02-11T18:25:20.105Z,1039.3
2023-02-11T18:30:20.112Z,1039.3
2023-02-11T18:35:20.112Z,1039.4
2023-02-11T18:40:20.108Z,1039.4
2023-02-11T18:45:20.114Z,1039.4
2023-02-11T18:50:20.109Z,1039.5
2023-02-11T18:55:22.605Z,1039.4
2023-02-11T19:00:20.108Z,1039.4
2023-02-11T19:05:20.106Z,1039.4
2023-02-11T19:10:20.093Z,1039.5
2023-02-11T19:15:20.116Z,1039.5
2023-02-11T19:20:20.097Z,1039.6
2023-02-11T19:25:20.112Z,1039.6
2023-02-11T19:30:20.100Z,1039.6
2023-02-11T19:35:20.110Z,1039.6
2023-02-11T19:40:20.100Z,1039.7
2023-02-11T19:45:20.111Z,1039.7
2023-02-11T19:50:20.112Z,1039.8
2023-02-11T19:55:20.104Z,1039.9
2023-02-11T20:00:20.098Z,1039.9
2023-02-11T20:05:20.106Z,1039.9
2023-02-11T20:10:20.099Z,1040
2023-02-11T20:15:20.112Z,1039.8
2023-02-11T20:20:20.104Z,1039.8
2023-02-11T20:25:20.108Z,1039.9
2023-02-11T20:30:20.100Z,1039.8
2023-02-11T20:35:20.090Z,1039.8
2023-02-11T20:40:20.096Z,1039.7
2023-02-11T20:45:20.097Z,1039.7
2023-02-11T20:50:20.100Z,1039.7
2023-02-11T20:55:20.126Z,1039.8
2023-02-11T21:00:20.104Z,1040
2023-02-11T21:05:20.123Z,1040.2
2023-02-11T21:10:20.099Z,1040.1
2023-02-11T21:15:20.111Z,1040.3
2023-02-11T21:20:20.104Z,1040.4
2023-02-11T21:25:20.108Z,1040.4
2023-02-11T21:30:20.108Z,1040.3
2023-02-11T21:35:20.117Z,1040.4
2023-02-11T21:40:22.807Z,1040.4
2023-02-11T21:45:20.125Z,1040.4
2023-02-11T21:50:20.096Z,1040.4
2023-02-11T21:55:20.123Z,1040.3
2023-02-11T22:00:20.113Z,1040.2
2023-02-11T22:05:20.118Z,1040.4
2023-02-11T22:10:20.121Z,1040.3
2023-02-11T22:15:20.124Z,1040.3
2023-02-11T22:20:20.128Z,1040.3
2023-02-11T22:25:20.115Z,1040.3
2023-02-11T22:30:20.112Z,1040.4
2023-02-11T22:35:20.175Z,1040.5
2023-02-11T22:40:20.115Z,1040.5
2023-02-11T22:45:20.105Z,1040.6
2023-02-11T22:50:20.108Z,1040.7
2023-02-11T22:55:20.109Z,1040.7
2023-02-11T23:00:20.109Z,1040.5
2023-02-11T23:05:20.114Z,1040.6
2023-02-11T23:10:20.110Z,1040.7
2023-02-11T23:15:20.101Z,1040.7
2023-02-11T23:20:20.099Z,1040.7
2023-02-11T23:25:20.105Z,1040.7
2023-02-11T23:30:20.098Z,1040.7
2023-02-11T23:35:20.107Z,1040.6
2023-02-11T23:40:20.111Z,1040.7
2023-02-11T23:45:20.124Z,1040.8
2023-02-11T23:50:20.109Z,1040.8
2023-02-11T23:55:20.107Z,1040.7
